Time;durP1;ratioP1;P1;durP2;ratioP2;P2;SDS_P1;SDS_P2;PMS_P1;PMS_P2;Temp;Humidity;BMP_temperature;BMP_pressure;BME280_temperature;BME280_humidity;BME280_pressure;Samples;Min_cycle;Max_cycle;Signal;HPM_P1;HPM_P2
2023/07/15 00:00:34;;;;;;;10.75;5.38;;;;;;;16.74;100.00;100227.31;5014125;28;19952;-77
2023/07/15 00:03:08;;;;;;;5.72;4.70;;;;;;;16.74;100.00;100215.00;5032736;28;20064;-78
2023/07/15 00:05:41;;;;;;;8.18;4.70;;;;;;;16.71;100.00;100213.94;5014802;28;20033;-78
2023/07/15 00:08:08;;;;;;;8.10;4.45;;;;;;;16.67;100.00;100204.03;5032768;28;20032;-76
2023/07/15 00:10:34;;;;;;;7.15;4.90;;;;;;;16.64;100.00;100208.00;5034512;28;20052;-76
2023/07/15 00:13:10;;;;;;;8.80;4.78;;;;;;;16.65;100.00;100204.56;5034939;28;20031;-75
2023/07/15 00:16:00;;;;;;;6.85;4.93;;;;;;;16.62;100.00;100210.63;5052863;28;20120;-78
2023/07/15 00:18:32;;;;;;;7.93;5.55;;;;;;;16.55;100.00;100215.66;5051451;28;20466;-77
2023/07/15 00:20:57;;;;;;;7.32;4.75;;;;;;;16.52;100.00;100233.22;5034478;28;20074;-76
2023/07/15 00:23:25;;;;;;;9.85;5.97;;;;;;;16.49;100.00;100220.69;5018064;28;20032;-78
2023/07/15 00:25:56;;;;;;;8.43;5.40;;;;;;;16.47;100.00;100216.75;5052416;28;20091;-77
2023/07/15 00:28:21;;;;;;;13.93;6.13;;;;;;;16.47;100.00;100219.63;5034073;28;20024;-77
2023/07/15 00:30:50;;;;;;;6.90;5.88;;;;;;;16.45;100.00;100214.38;5034901;28;20549;-75
2023/07/15 00:33:19;;;;;;;6.60;5.22;;;;;;;16.45;100.00;100220.16;5034970;28;20111;-76
2023/07/15 00:35:45;;;;;;;7.28;5.90;;;;;;;16.44;100.00;100215.72;5035115;28;20523;-77
2023/07/15 00:38:11;;;;;;;7.35;4.93;;;;;;;16.43;100.00;100207.59;5034502;28;20037;-77
2023/07/15 00:40:40;;;;;;;8.88;4.90;;;;;;;16.41;100.00;100204.47;5017952;28;20074;-77
2023/07/15 00:43:43;;;;;;;7.75;5.30;;;;;;;16.39;100.00;100202.13;5017531;28;20033;-76
2023/07/15 00:46:22;;;;;;;11.63;5.72;;;;;;;16.32;100.00;100196.94;5052604;28;20416;-78
2023/07/15 00:49:28;;;;;;;7.57;6.03;;;;;;;16.30;100.00;100195.91;5054182;28;20021;-77
2023/07/15 00:52:16;;;;;;;8.63;5.15;;;;;;;16.25;100.00;100194.66;5054593;28;20029;-77
2023/07/15 00:54:46;;;;;;;7.20;5.90;;;;;;;16.22;100.00;100189.16;5035270;28;20031;-76
2023/07/15 00:57:15;;;;;;;7.90;5.60;;;;;;;16.21;100.00;100191.25;5035119;28;20112;-78
2023/07/15 00:59:59;;;;;;;9.00;6.25;;;;;;;16.18;100.00;100195.22;5034625;28;20474;-78
2023/07/15 01:02:25;;;;;;;10.95;6.45;;;;;;;16.16;100.00;100192.06;5034099;28;20057;-78
2023/07/15 01:04:55;;;;;;;9.77;5.93;;;;;;;16.12;100.00;100195.25;5034460;28;20049;-77
2023/07/15 01:07:21;;;;;;;11.82;6.30;;;;;;;16.07;100.00;100193.19;5052045;28;20029;-77
2023/07/15 01:09:51;;;;;;;10.35;6.40;;;;;;;16.08;100.00;100189.00;5052200;28;20056;-76
2023/07/15 01:12:16;;;;;;;9.52;6.88;;;;;;;16.07;100.00;100186.63;5052028;28;20032;-77
2023/07/15 01:14:44;;;;;;;8.15;6.05;;;;;;;16.02;100.00;100179.59;5035277;28;20045;-76
2023/07/15 01:17:09;;;;;;;8.63;6.63;;;;;;;16.00;100.00;100181.44;5053084;28;20021;-78
2023/07/15 01:19:35;;;;;;;10.88;6.05;;;;;;;15.99;100.00;100185.66;5035517;28;20029;-78
2023/07/15 01:22:01;;;;;;;10.73;6.68;;;;;;;15.95;100.00;100182.28;5051169;28;20041;-77
2023/07/15 01:24:28;;;;;;;7.35;5.75;;;;;;;15.95;100.00;100185.16;5035235;28;20386;-78
2023/07/15 01:27:06;;;;;;;10.55;7.32;;;;;;;15.93;100.00;100193.53;5052133;28;20484;-78
2023/07/15 01:29:31;;;;;;;17.17;7.03;;;;;;;15.88;100.00;100191.47;5053194;28;20062;-78
2023/07/15 01:31:56;;;;;;;11.27;6.60;;;;;;;15.85;100.00;100190.44;5052817;28;20040;-77
2023/07/15 01:34:30;;;;;;;8.57;6.47;;;;;;;15.84;100.00;100190.97;5053037;28;20101;-77
2023/07/15 01:37:04;;;;;;;9.63;7.03;;;;;;;15.82;100.00;100190.72;5052655;28;20488;-78
2023/07/15 01:39:31;;;;;;;8.93;6.70;;;;;;;15.79;100.00;100189.69;5053710;28;20139;-78
2023/07/15 01:41:59;;;;;;;8.75;6.00;;;;;;;15.77;100.00;100192.31;5039179;28;20075;-76
2023/07/15 01:44:26;;;;;;;11.85;6.78;;;;;;;15.75;100.00;100180.56;5038529;28;20021;-78
2023/07/15 01:46:52;;;;;;;11.57;7.05;;;;;;;15.72;100.00;100187.38;5038325;28;20028;-77
2023/07/15 01:49:20;;;;;;;12.45;6.60;;;;;;;15.69;100.00;100183.47;5056259;28;20021;-78
2023/07/15 01:51:46;;;;;;;12.05;6.93;;;;;;;15.68;100.00;100178.22;5039066;28;20029;-78
2023/07/15 01:54:12;;;;;;;7.28;6.50;;;;;;;15.61;100.00;100181.69;5054916;28;20523;-77
2023/07/15 01:56:41;;;;;;;8.93;6.75;;;;;;;15.48;100.00;100173.56;5056500;28;20025;-78
2023/07/15 01:59:10;;;;;;;11.48;6.97;;;;;;;15.43;100.00;100182.22;5056137;28;20051;-77
2023/07/15 02:01:36;;;;;;;7.15;6.45;;;;;;;15.40;100.00;100189.06;5038840;28;20123;-77
2023/07/15 02:04:01;;;;;;;9.50;7.30;;;;;;;15.38;100.00;100174.41;5056190;28;20074;-77
2023/07/15 02:06:27;;;;;;;12.75;7.07;;;;;;;15.38;100.00;100177.28;5055950;28;20032;-76
2023/07/15 02:08:53;;;;;;;11.55;6.95;;;;;;;15.36;100.00;100189.34;5055879;28;20025;-76
2023/07/15 02:11:19;;;;;;;8.73;6.78;;;;;;;15.30;100.00;100185.69;5055760;28;20045;-79
2023/07/15 02:13:44;;;;;;;10.90;7.03;;;;;;;15.27;100.00;100187.53;5055384;28;20048;-77
2023/07/15 02:16:19;;;;;;;8.98;6.30;;;;;;;15.26;100.00;100185.97;5036696;28;20056;-77
2023/07/15 02:18:48;;;;;;;12.85;7.05;;;;;;;15.24;100.00;100185.72;5048411;28;20090;-77
2023/07/15 02:21:16;;;;;;;7.95;6.90;;;;;;;15.23;100.00;100177.59;5053673;28;20029;-77
2023/07/15 02:23:42;;;;;;;7.43;6.70;;;;;;;15.17;100.00;100177.63;5054670;28;20024;-77
2023/07/15 02:26:10;;;;;;;7.93;7.13;;;;;;;15.13;100.00;100182.06;5054189;28;20033;-76
2023/07/15 02:28:36;;;;;;;11.52;7.28;;;;;;;15.12;100.00;100189.16;5054979;28;20021;-78
2023/07/15 02:31:04;;;;;;;12.25;7.07;;;;;;;15.08;100.00;100183.66;5053584;28;20513;-79
2023/07/15 02:33:30;;;;;;;10.48;6.68;;;;;;;15.12;100.00;100189.16;5053799;28;20101;-78
2023/07/15 02:35:55;;;;;;;8.13;7.05;;;;;;;15.07;100.00;100184.97;5054152;28;20099;-78
2023/07/15 02:38:21;;;;;;;9.95;6.38;;;;;;;15.11;100.00;100185.50;5036498;28;20542;-77
2023/07/15 02:40:48;;;;;;;8.57;7.32;;;;;;;15.10;100.00;100189.69;5036051;28;20043;-77
2023/07/15 02:43:14;;;;;;;13.10;7.57;;;;;;;15.09;100.00;100190.22;5045499;28;20443;-78
2023/07/15 02:45:39;;;;;;;11.95;6.95;;;;;;;14.95;100.00;100169.06;5054095;28;20028;-77
2023/07/15 02:48:11;;;;;;;8.68;7.38;;;;;;;15.10;100.00;100189.69;5054373;28;20025;-77
2023/07/15 02:50:41;;;;;;;9.80;7.80;;;;;;;15.08;100.00;100183.66;5053895;28;20044;-76
2023/07/15 02:53:18;;;;;;;8.13;7.00;;;;;;;15.07;100.00;100196.47;5053359;28;20072;-76
2023/07/15 02:55:44;;;;;;;9.70;6.97;;;;;;;15.05;100.00;100193.38;5054028;28;20020;-76
2023/07/15 02:58:13;;;;;;;10.93;7.82;;;;;;;15.05;100.00;100181.84;5036127;28;20471;-77
2023/07/15 03:00:39;;;;;;;9.98;7.20;;;;;;;15.06;100.00;100186.31;5019749;28;20032;-78
2023/07/15 03:03:09;;;;;;;13.85;7.10;;;;;;;15.07;100.00;100184.97;5037332;28;20037;-78
2023/07/15 03:05:36;;;;;;;9.88;7.47;;;;;;;15.07;100.00;100187.84;5037228;28;20394;-77
2023/07/15 03:08:03;;;;;;;9.50;7.90;;;;;;;15.06;100.00;100189.19;5054991;28;20024;-77
2023/07/15 03:10:30;;;;;;;11.48;7.35;;;;;;;15.05;100.00;100187.59;5037087;28;20412;-78
2023/07/15 03:12:56;;;;;;;10.18;7.60;;;;;;;15.12;100.00;100198.56;5055020;28;20040;-78
2023/07/15 03:15:23;;;;;;;9.65;7.95;;;;;;;15.03;100.00;100181.59;5052633;28;20044;-78
2023/07/15 03:17:48;;;;;;;12.77;7.75;;;;;;;15.10;100.00;100183.94;5036787;28;20025;-77
2023/07/15 03:20:19;;;;;;;9.07;8.20;;;;;;;15.10;100.00;100188.91;5054155;28;20041;-76
2023/07/15 03:22:48;;;;;;;8.50;7.70;;;;;;;15.07;100.00;100199.34;5054864;28;20090;-78
2023/07/15 03:25:14;;;;;;;12.32;7.43;;;;;;;15.06;100.00;100194.94;5020909;28;20107;-77
2023/07/15 03:27:40;;;;;;;11.88;7.72;;;;;;;15.03;100.00;100187.34;5020279;28;20039;-78
2023/07/15 03:30:08;;;;;;;10.07;7.13;;;;;;;15.04;100.00;100179.50;5020083;28;20025;-77
2023/07/15 03:32:38;;;;;;;9.77;7.78;;;;;;;14.99;100.00;100183.16;5037040;28;20044;-78
2023/07/15 03:35:05;;;;;;;11.38;7.53;;;;;;;15.00;100.00;100190.50;5054486;28;20029;-79
2023/07/15 03:37:34;;;;;;;13.18;8.23;;;;;;;14.98;100.00;100187.34;5054344;28;20032;-78
2023/07/15 03:40:00;;;;;;;9.60;7.60;;;;;;;14.99;100.00;100189.72;5054360;28;20033;-77
2023/07/15 03:42:27;;;;;;;9.85;7.55;;;;;;;15.01;100.00;100203.59;5036186;28;20480;-77
2023/07/15 03:44:54;;;;;;;13.13;7.55;;;;;;;15.04;100.00;100193.88;5003458;28;20036;-77
2023/07/15 03:47:20;;;;;;;14.05;8.38;;;;;;;15.09;100.00;100187.31;5036279;28;20167;-77
2023/07/15 03:49:46;;;;;;;11.55;8.00;;;;;;;15.08;100.00;100182.88;5053248;28;20043;-78
2023/07/15 03:52:13;;;;;;;13.95;8.27;;;;;;;15.05;100.00;100181.06;5036589;28;20029;-79
2023/07/15 03:54:41;;;;;;;11.48;8.38;;;;;;;15.05;100.00;100183.94;5054223;28;20028;-78
2023/07/15 03:57:07;;;;;;;13.57;8.07;;;;;;;15.08;100.00;100186.53;5033418;28;20041;-77
2023/07/15 03:59:33;;;;;;;8.95;7.97;;;;;;;15.14;100.00;100184.44;5036045;28;20386;-78
2023/07/15 04:01:59;;;;;;;12.27;8.50;;;;;;;15.18;100.00;100184.94;5053853;28;20033;-78
2023/07/15 04:04:24;;;;;;;12.52;8.82;;;;;;;15.19;100.00;100186.50;5052687;28;20454;-77
2023/07/15 04:06:52;;;;;;;13.25;8.77;;;;;;;15.22;100.00;100182.56;5036757;28;20048;-76
2023/07/15 04:09:18;;;;;;;12.80;8.43;;;;;;;15.34;100.00;100191.19;5035879;28;20048;-77
2023/07/15 04:11:52;;;;;;;14.40;8.23;;;;;;;15.45;100.00;100197.69;5052425;28;20101;-79
2023/07/15 04:14:18;;;;;;;14.95;8.73;;;;;;;15.55;100.00;100198.94;5019267;28;20044;-78
2023/07/15 04:16:45;;;;;;;13.32;8.80;;;;;;;15.63;100.00;100197.09;5035771;28;20141;-78
2023/07/15 04:19:12;;;;;;;16.52;8.50;;;;;;;15.68;100.00;100189.75;5035672;28;20094;-76
2023/07/15 04:21:37;;;;;;;12.77;8.93;;;;;;;15.75;100.00;100197.84;5053498;28;20025;-78
2023/07/15 04:24:04;;;;;;;15.93;8.75;;;;;;;15.81;100.00;100192.81;5051254;28;20035;-77
2023/07/15 04:26:38;;;;;;;12.07;8.90;;;;;;;15.87;100.00;100184.13;5019077;28;20414;-78
2023/07/15 04:29:03;;;;;;;14.73;9.48;;;;;;;15.95;100.00;100185.94;5053795;28;20101;-78
2023/07/15 04:31:38;;;;;;;14.15;9.23;;;;;;;16.00;100.00;100182.25;5052920;28;20115;-77
2023/07/15 04:34:04;;;;;;;11.30;9.07;;;;;;;16.02;100.00;100173.81;5053420;28;20386;-78
2023/07/15 04:36:34;;;;;;;12.90;9.23;;;;;;;16.13;100.00;100175.84;5035742;28;20025;-77
2023/07/15 04:39:00;;;;;;;14.00;9.25;;;;;;;16.20;100.00;100177.38;5053313;28;20040;-78
2023/07/15 04:41:28;;;;;;;12.52;8.80;;;;;;;16.24;100.00;100177.88;5053303;28;20025;-78
2023/07/15 04:43:53;;;;;;;15.70;9.10;;;;;;;16.22;100.00;100160.31;5053676;28;20071;-78
2023/07/15 04:46:20;;;;;;;12.55;8.80;;;;;;;16.37;100.00;100161.50;5036521;28;20033;-78
2023/07/15 04:48:46;;;;;;;12.25;9.90;;;;;;;16.40;100.00;100174.84;5054093;28;20588;-78
2023/07/15 04:51:12;;;;;;;14.55;9.23;;;;;;;16.44;100.00;100178.22;5037230;28;20031;-76
2023/07/15 04:53:43;;;;;;;14.95;8.70;;;;;;;16.56;100.00;100170.28;5054739;28;20021;-80
2023/07/15 04:56:10;;;;;;;12.90;9.73;;;;;;;16.67;100.00;100178.84;5056628;28;20025;-78
2023/07/15 04:58:37;;;;;;;13.25;8.77;;;;;;;16.77;100.00;100179.28;5037547;28;20021;-77
2023/07/15 05:01:04;;;;;;;18.77;8.73;;;;;;;16.86;100.00;100184.69;5018988;28;20116;-78
2023/07/15 05:03:33;;;;;;;11.32;9.05;;;;;;;17.02;100.00;100177.97;5035408;28;20481;-77
2023/07/15 05:05:59;;;;;;;11.30;8.45;;;;;;;17.10;100.00;100173.13;5035080;28;20061;-78
2023/07/15 05:08:26;;;;;;;12.48;8.43;;;;;;;17.26;100.00;100195.28;5053400;28;20026;-78
2023/07/15 05:10:53;;;;;;;13.90;8.35;;;;;;;17.36;100.00;100187.03;4998805;28;20050;-78
2023/07/15 05:13:20;;;;;;;10.52;7.82;;;;;;;17.47;100.00;100181.16;5032254;28;20032;-78
2023/07/15 05:15:45;;;;;;;12.55;8.13;;;;;;;17.62;100.00;100190.16;5034314;28;20068;-79
2023/07/15 05:18:13;;;;;;;11.52;7.90;;;;;;;17.74;100.00;100187.88;5035569;28;20037;-77
2023/07/15 05:20:38;;;;;;;16.85;8.52;;;;;;;17.83;100.00;100175.94;5037267;28;20128;-78
2023/07/15 05:23:14;;;;;;;12.25;8.20;;;;;;;17.93;100.00;100197.31;5037155;28;20045;-76
2023/07/15 05:25:40;;;;;;;11.40;7.40;;;;;;;18.04;100.00;100187.72;5035645;28;20509;-79
2023/07/15 05:28:05;;;;;;;9.98;8.18;;;;;;;18.12;100.00;100197.34;5037527;28;20025;-78
2023/07/15 05:30:46;;;;;;;11.70;7.68;;;;;;;18.30;100.00;100196.53;5036833;28;20347;-77
2023/07/15 05:33:11;;;;;;;10.88;7.93;;;;;;;18.35;100.00;100183.34;5037077;28;20079;-78
2023/07/15 05:35:38;;;;;;;12.07;7.60;;;;;;;18.44;100.00;100185.81;5035463;28;20025;-77
2023/07/15 05:38:04;;;;;;;9.85;7.78;;;;;;;18.52;100.00;100189.63;5036624;28;20037;-78
2023/07/15 05:40:30;;;;;;;11.63;6.50;;;;;;;18.65;100.00;100183.88;5035384;28;20061;-78
2023/07/15 05:42:56;;;;;;;11.57;7.30;;;;;;;18.74;100.00;100191.34;5035540;28;20047;-78
2023/07/15 05:45:25;;;;;;;10.65;6.70;;;;;;;18.86;100.00;100186.94;5036490;28;20518;-78
2023/07/15 05:47:51;;;;;;;12.27;6.93;;;;;;;18.85;100.00;100180.38;5036618;28;20078;-78
2023/07/15 05:50:18;;;;;;;11.45;6.32;;;;;;;19.02;100.00;100186.59;5036908;28;20026;-78
2023/07/15 05:52:46;;;;;;;9.68;6.70;;;;;;;19.11;100.00;100182.50;5036288;28;20028;-78
2023/07/15 05:55:11;;;;;;;7.90;6.53;;;;;;;19.23;100.00;100191.78;5035283;28;20029;-78
2023/07/15 05:57:37;;;;;;;7.70;6.05;;;;;;;19.36;100.00;100195.47;5018451;28;20071;-79
2023/07/15 06:00:08;;;;;;;9.73;6.07;;;;;;;19.47;100.00;100200.25;5036435;28;20021;-78
2023/07/15 06:02:42;;;;;;;8.02;5.35;;;;;;;19.69;100.00;100193.22;5036308;28;20031;-79
2023/07/15 06:05:08;;;;;;;8.65;4.35;;;;;;;20.24;100.00;100182.50;5036343;28;20030;-80
2023/07/15 06:07:34;;;;;;;6.70;4.57;;;;;;;21.40;100.00;100178.66;5036359;28;20036;-81
2023/07/15 06:10:02;;;;;;;9.30;4.72;;;;;;;22.84;100.00;100167.50;5042749;28;20118;-79
2023/07/15 06:12:27;;;;;;;6.50;4.22;;;;;;;24.19;100.00;100167.75;5056158;28;20108;-79
2023/07/15 06:14:53;;;;;;;7.90;4.20;;;;;;;25.44;100.00;100157.59;5056024;28;20063;-80
2023/07/15 06:17:18;;;;;;;8.18;3.72;;;;;;;26.74;100.00;100151.59;5056120;28;20113;-80
2023/07/15 06:19:43;;;;;;;7.40;3.10;;;;;;;28.19;100.00;100145.88;5055933;28;20021;-81
2023/07/15 06:22:10;;;;;;;6.53;3.75;;;;;;;29.54;100.00;100160.72;5038043;28;20032;-79
2023/07/15 06:24:35;;;;;;;4.22;3.25;;;;;;;30.42;96.18;100163.03;5037878;28;20482;-80
2023/07/15 06:27:03;;;;;;;6.53;3.30;;;;;;;31.26;87.22;100169.94;5036838;28;20031;-82
2023/07/15 06:29:29;;;;;;;4.28;2.80;;;;;;;32.14;83.04;100167.13;5055831;28;20021;-77
2023/07/15 06:31:55;;;;;;;3.30;2.95;;;;;;;33.18;68.01;100183.41;5054887;28;20041;-79
2023/07/15 06:34:31;;;;;;;5.35;3.28;;;;;;;34.10;57.38;100177.94;5056273;28;20029;-87
2023/07/15 06:36:58;;;;;;;5.05;2.97;;;;;;;34.56;46.74;100188.38;5038298;28;20032;-82
2023/07/15 06:39:23;;;;;;;4.95;3.17;;;;;;;34.85;48.44;100186.81;5023339;28;20041;-82
2023/07/15 06:41:57;;;;;;;4.78;3.15;;;;;;;35.62;45.44;100185.22;5054358;28;20166;-78
2023/07/15 06:44:25;;;;;;;4.30;2.67;;;;;;;36.17;39.13;100181.66;5055351;28;20067;-77
2023/07/15 06:46:51;;;;;;;5.88;3.20;;;;;;;36.43;41.19;100177.59;5054928;28;20243;-77
2023/07/15 06:49:18;;;;;;;3.15;2.80;;;;;;;36.78;36.63;100176.75;5047900;28;20032;-77
2023/07/15 06:51:44;;;;;;;6.38;2.67;;;;;;;37.00;36.80;100173.16;5054995;28;20116;-77
2023/07/15 06:54:09;;;;;;;3.83;2.30;;;;;;;37.03;36.50;100166.56;5036994;28;20021;-79
2023/07/15 06:56:39;;;;;;;2.55;2.35;;;;;;;37.08;36.16;100165.28;5054316;28;20040;-76
2023/07/15 06:59:07;;;;;;;5.50;2.83;;;;;;;37.30;36.69;100169.09;5054792;28;20029;-76
2023/07/15 07:01:36;;;;;;;4.90;2.50;;;;;;;37.69;34.17;100161.56;5036772;28;20033;-77
2023/07/15 07:04:04;;;;;;;4.20;2.20;;;;;;;37.71;33.92;100162.44;5049820;28;20032;-76
2023/07/15 07:06:29;;;;;;;5.55;2.58;;;;;;;37.91;34.24;100156.44;5053436;28;20040;-76
2023/07/15 07:08:54;;;;;;;3.35;2.20;;;;;;;38.38;34.06;100163.97;5054608;28;20021;-77
2023/07/15 07:11:28;;;;;;;3.05;2.58;;;;;;;38.78;32.33;100164.53;5052377;28;20049;-75
2023/07/15 07:13:54;;;;;;;2.60;2.10;;;;;;;38.85;30.90;100163.25;5054986;28;20032;-75
2023/07/15 07:16:20;;;;;;;8.23;2.30;;;;;;;39.02;31.19;100162.28;5036833;28;20033;-77
2023/07/15 07:18:46;;;;;;;5.72;2.33;;;;;;;39.29;31.99;100161.63;5034334;28;20112;-77
2023/07/15 07:21:13;;;;;;;3.25;2.30;;;;;;;39.44;30.69;100165.78;5054426;28;20154;-75
2023/07/15 07:23:39;;;;;;;4.15;2.35;;;;;;;39.38;29.70;100156.63;5054591;28;20111;-77
2023/07/15 07:26:05;;;;;;;2.47;2.05;;;;;;;39.81;31.81;100156.34;5054522;28;20119;-76
2023/07/15 07:28:43;;;;;;;2.38;2.17;;;;;;;40.11;28.96;100155.63;5036824;28;20025;-76
2023/07/15 07:31:11;;;;;;;3.22;2.17;;;;;;;40.10;28.49;100145.88;5037059;28;20044;-76
2023/07/15 07:33:40;;;;;;;6.28;2.45;;;;;;;40.21;28.29;100153.66;5036912;28;20090;-78
2023/07/15 07:36:08;;;;;;;4.95;2.42;;;;;;;40.48;28.16;100151.31;5054361;28;20044;-77
2023/07/15 07:38:35;;;;;;;4.30;2.17;;;;;;;40.75;28.52;100152.72;5054159;28;20033;-78
2023/07/15 07:41:09;;;;;;;4.35;2.15;;;;;;;41.11;25.95;100146.78;5036580;28;20025;-77
2023/07/15 07:43:36;;;;;;;3.22;2.10;;;;;;;40.81;26.55;100138.63;5054489;28;20020;-77
2023/07/15 07:46:05;;;;;;;4.57;2.20;;;;;;;40.63;27.56;100144.91;5054152;28;20021;-76
2023/07/15 07:48:33;;;;;;;5.40;2.65;;;;;;;40.78;26.59;100139.31;5032932;28;20045;-77
2023/07/15 07:51:00;;;;;;;2.97;2.28;;;;;;;40.90;26.78;100128.31;5054511;28;20090;-77
2023/07/15 07:53:26;;;;;;;6.38;2.03;;;;;;;40.93;26.17;100126.88;5036440;28;20071;-78
2023/07/15 07:55:53;;;;;;;4.10;2.00;;;;;;;40.70;25.83;100130.09;5054254;28;20386;-78
2023/07/15 07:58:18;;;;;;;3.63;2.30;;;;;;;40.63;26.53;100132.94;5036489;28;20060;-77
2023/07/15 08:00:44;;;;;;;5.05;2.03;;;;;;;40.69;26.02;100126.34;5036353;28;20068;-79
2023/07/15 08:03:10;;;;;;;4.90;2.13;;;;;;;40.65;26.16;100139.00;5036034;28;20041;-79
2023/07/15 08:05:46;;;;;;;2.75;1.95;;;;;;;40.61;25.91;100129.13;5036490;28;20036;-78
2023/07/15 08:08:14;;;;;;;4.40;2.25;;;;;;;40.49;25.44;100128.84;5054411;28;20039;-78
2023/07/15 08:10:41;;;;;;;2.15;1.60;;;;;;;40.69;24.81;100122.59;5004672;28;20062;-79
2023/07/15 08:13:07;;;;;;;3.13;1.88;;;;;;;40.47;26.05;100117.59;5012445;28;20429;-80
2023/07/15 08:15:37;;;;;;;2.10;1.90;;;;;;;40.75;26.34;100119.72;5013058;28;20034;-82
2023/07/15 08:18:03;;;;;;;3.67;1.85;;;;;;;41.02;25.63;100115.81;4980460;28;20038;-80
2023/07/15 08:20:32;;;;;;;4.50;1.83;;;;;;;40.97;24.87;100109.00;5014425;28;20036;-81
2023/07/15 08:22:59;;;;;;;7.82;2.08;;;;;;;41.05;25.27;100109.16;5007174;28;20077;-81
2023/07/15 08:25:25;;;;;;;6.15;1.75;;;;;;;41.00;24.87;100109.78;5012929;28;20486;-83
2023/07/15 08:27:51;;;;;;;2.40;1.83;;;;;;;40.84;25.66;100100.44;5015527;28;20018;-79
2023/07/15 08:30:18;;;;;;;2.65;1.83;;;;;;;40.75;24.96;100107.75;4994099;28;20472;-80
2023/07/15 08:32:43;;;;;;;4.70;1.80;;;;;;;40.52;25.97;100106.47;5004205;28;20034;-78
2023/07/15 08:35:09;;;;;;;4.53;1.80;;;;;;;40.47;26.42;100105.63;5013369;28;20481;-82
2023/07/15 08:37:56;;;;;;;4.57;2.03;;;;;;;40.69;25.35;100098.59;5013508;28;20434;-78
2023/07/15 08:40:25;;;;;;;3.60;1.80;;;;;;;40.71;25.47;100111.41;5014192;28;20089;-85
2023/07/15 08:43:13;;;;;;;3.63;1.67;;;;;;;40.66;24.84;100118.78;4972586;28;20041;-79
2023/07/15 08:45:39;;;;;;;3.08;2.00;;;;;;;40.27;25.96;100113.34;4989894;28;20033;-78
2023/07/15 08:48:06;;;;;;;5.95;1.83;;;;;;;40.10;26.19;100103.94;5010337;28;20033;-78
2023/07/15 08:50:34;;;;;;;4.90;2.00;;;;;;;40.05;25.88;100107.56;4995367;28;20052;-78
2023/07/15 08:53:03;;;;;;;7.07;2.40;;;;;;;39.94;26.44;100106.53;5017068;28;20430;-78
2023/07/15 08:55:29;;;;;;;3.15;1.80;;;;;;;39.87;26.87;100107.88;5018386;28;20033;-76
2023/07/15 08:57:59;;;;;;;3.53;1.92;;;;;;;39.97;26.62;100102.13;5018009;28;20128;-78
2023/07/15 09:00:25;;;;;;;2.85;1.92;;;;;;;39.91;26.60;100098.97;5018382;28;20040;-78
2023/07/15 09:02:52;;;;;;;2.53;2.20;;;;;;;39.78;26.87;100106.13;5036508;28;20108;-79
2023/07/15 09:05:17;;;;;;;3.67;2.00;;;;;;;39.54;26.58;100093.50;5036806;28;20039;-80
2023/07/15 09:07:55;;;;;;;3.45;2.00;;;;;;;39.47;26.82;100110.53;5037162;28;20038;-79
2023/07/15 09:10:22;;;;;;;6.75;2.33;;;;;;;39.06;27.30;100090.66;5017238;28;20049;-79
2023/07/15 09:13:12;;;;;;;3.90;2.25;;;;;;;38.48;27.29;100092.59;5056820;28;20044;-78
2023/07/15 09:15:40;;;;;;;3.28;2.00;;;;;;;38.27;28.65;100078.50;5041352;28;20045;-78
2023/07/15 09:18:07;;;;;;;3.38;2.00;;;;;;;38.26;27.73;100082.97;5056039;28;20051;-76
2023/07/15 09:20:32;;;;;;;2.42;1.80;;;;;;;38.02;27.42;100089.63;5056794;28;20040;-77
2023/07/15 09:23:07;;;;;;;6.45;1.85;;;;;;;38.04;27.31;100082.97;5054871;28;20041;-74
2023/07/15 09:25:35;;;;;;;2.80;2.03;;;;;;;37.98;27.73;100086.50;5038296;28;20056;-76
2023/07/15 09:28:02;;;;;;;3.20;1.83;;;;;;;37.85;28.84;100093.53;5056127;28;20037;-77
2023/07/15 09:30:28;;;;;;;4.53;2.15;;;;;;;37.87;28.31;100084.63;5038362;28;20024;-77
2023/07/15 09:32:54;;;;;;;5.38;1.80;;;;;;;37.70;28.40;100077.34;5055701;28;20041;-77
2023/07/15 09:35:22;;;;;;;2.40;1.80;;;;;;;37.66;28.72;100085.41;5021529;28;20032;-78
2023/07/15 09:37:48;;;;;;;2.88;2.17;;;;;;;37.59;29.01;100077.69;5053339;28;20051;-75
2023/07/15 09:40:15;;;;;;;3.40;1.83;;;;;;;37.46;28.87;100076.50;5038255;28;20474;-76
2023/07/15 09:42:57;;;;;;;2.35;1.95;;;;;;;37.24;30.34;100069.72;5038084;28;20533;-77
2023/07/15 09:45:38;;;;;;;2.88;1.70;;;;;;;36.99;27.90;100082.22;5056118;28;20028;-77
2023/07/15 09:48:07;;;;;;;4.72;1.88;;;;;;;36.44;27.43;100071.91;5055474;28;20037;-77
2023/07/15 09:50:35;;;;;;;4.95;2.05;;;;;;;36.08;28.86;100070.47;5055656;28;20374;-81
2023/07/15 09:53:02;;;;;;;4.20;1.88;;;;;;;36.00;29.43;100076.81;5038189;28;20033;-77
2023/07/15 09:55:29;;;;;;;4.43;1.90;;;;;;;35.79;28.20;100082.59;5038124;28;20033;-79
2023/07/15 09:58:18;;;;;;;4.10;1.92;;;;;;;35.64;28.98;100063.41;5055715;28;20025;-76
2023/07/15 10:01:07;;;;;;;3.75;2.00;;;;;;;35.59;29.51;100080.31;5037583;28;20032;-78
2023/07/15 10:03:55;;;;;;;5.20;2.13;;;;;;;35.36;29.38;100077.00;5050094;28;20060;-79
2023/07/15 10:06:29;;;;;;;5.00;1.63;;;;;;;34.78;29.96;100079.59;5034369;28;20048;-74
2023/07/15 10:08:58;;;;;;;5.18;2.10;;;;;;;34.53;32.06;100067.25;5037604;28;20497;-76
2023/07/15 10:11:23;;;;;;;6.65;2.00;;;;;;;34.40;31.68;100074.03;5055474;28;20517;-76
2023/07/15 10:13:49;;;;;;;5.47;2.30;;;;;;;33.97;32.33;100074.16;5021318;28;20117;-79
2023/07/15 10:16:17;;;;;;;3.20;2.00;;;;;;;33.70;32.37;100069.09;5054347;28;20043;-78
2023/07/15 10:18:45;;;;;;;2.70;1.63;;;;;;;33.40;33.03;100083.09;5054785;28;20120;-80
2023/07/15 10:21:14;;;;;;;1.77;1.60;;;;;;;33.10;34.48;100074.13;5054570;28;20120;-82
2023/07/15 10:23:39;;;;;;;2.78;1.90;;;;;;;32.88;35.33;100069.97;5055824;28;20056;-88
2023/07/15 10:26:07;;;;;;;3.15;2.00;;;;;;;32.99;36.80;100065.34;5056403;28;20056;-86
2023/07/15 10:28:40;;;;;;;7.40;1.67;;;;;;;33.06;35.89;100073.16;5058174;28;20446;-84
2023/07/15 10:31:12;;;;;;;4.05;2.17;;;;;;;33.12;36.91;100067.56;5057550;28;20048;-89
2023/07/15 10:33:55;;;;;;;3.65;1.75;;;;;;;33.04;36.60;100067.13;5057446;28;20107;-84
2023/07/15 10:36:48;;;;;;;3.03;2.03;;;;;;;32.80;35.92;100053.97;5056171;28;20051;-81
2023/07/15 10:39:22;;;;;;;3.50;1.88;;;;;;;32.53;36.02;100055.47;5055019;28;20051;-76
2023/07/15 10:41:51;;;;;;;6.68;2.00;;;;;;;32.40;37.93;100055.44;5055465;28;20045;-78
2023/07/15 10:44:22;;;;;;;2.15;1.95;;;;;;;32.15;38.20;100036.31;5053507;28;20032;-79
2023/07/15 10:47:03;;;;;;;5.10;1.67;;;;;;;32.13;36.70;100056.91;5054108;28;20039;-77
2023/07/15 10:49:35;;;;;;;4.72;1.55;;;;;;;32.04;38.43;100048.25;5055443;28;20166;-78
2023/07/15 10:52:05;;;;;;;4.80;2.08;;;;;;;31.96;38.80;100051.50;5055242;28;20557;-77
2023/07/15 10:54:34;;;;;;;2.80;1.83;;;;;;;31.72;38.00;100056.00;5054171;28;20036;-79
2023/07/15 10:57:07;;;;;;;2.05;1.60;;;;;;;31.40;37.72;100043.78;5037350;28;20037;-78
2023/07/15 10:59:37;;;;;;;3.25;1.83;;;;;;;31.35;37.61;100047.16;5052770;28;20040;-77
2023/07/15 11:02:03;;;;;;;5.40;2.35;;;;;;;31.31;39.28;100035.84;5056974;28;20028;-81
2023/07/15 11:04:30;;;;;;;2.22;1.70;;;;;;;31.44;41.46;100039.53;5064762;28;20481;-79
2023/07/15 11:07:00;;;;;;;4.70;1.92;;;;;;;31.49;39.73;100050.94;5039983;28;20395;-76
2023/07/15 11:09:30;;;;;;;4.40;2.00;;;;;;;31.48;40.19;100042.72;5053574;28;20021;-78
2023/07/15 11:11:57;;;;;;;2.38;1.73;;;;;;;31.51;39.60;100038.47;5052201;28;20091;-78
2023/07/15 11:14:27;;;;;;;2.75;1.60;;;;;;;31.46;37.85;100033.72;5036593;28;20120;-78
2023/07/15 11:16:58;;;;;;;3.42;1.88;;;;;;;31.45;37.26;100032.22;5054706;28;20474;-79
2023/07/15 11:19:26;;;;;;;2.00;1.60;;;;;;;31.46;36.82;100028.59;5055024;28;20052;-79
2023/07/15 11:21:55;;;;;;;2.75;1.48;;;;;;;31.32;34.21;100025.56;5054832;28;20029;-79
2023/07/15 11:24:22;;;;;;;2.38;1.67;;;;;;;31.29;34.50;100023.94;5053497;28;20123;-77
2023/07/15 11:26:48;;;;;;;3.92;1.88;;;;;;;31.29;35.19;100032.03;5054761;28;20482;-77